Terminal Aerodrome Forecast
Issued by NWS Blacksburg, VA

Current Version | Previous Version | Text Only | Print | Product List | Glossary Off
Versions: 1 2 3 4 5 6 7 8 9 10 11 12 13 14 15 16 17 18 19 20 21 22 23 24 25 26 27 28 29 30 31 32

000
FTUS41 KRNK 032106 AAA
TAFBLF
TAF AMD
KBLF 032106Z 0321/0418 30008KT P6SM VCTS SCT025CB BKN040
     FM032300 32003KT P6SM BKN050
     FM040700 24003KT 4SM HZ BKN025
     FM041300 32004KT P6SM SCT025 BKN050=

USA.gov is the U.S. government's official web portal to all federal, state and local government web resources and services.